sensor_id;sensor_type;location;lat;lon;timestamp;P1;durP1;ratioP1;P2;durP2;ratioP2
62610;SDS011;48683;48.084;17.272;2023-05-16T00:00:28;5.65;;;3.33;;
62610;SDS011;48683;48.084;17.272;2023-05-16T00:02:58;4.68;;;3.42;;
62610;SDS011;48683;48.084;17.272;2023-05-16T00:05:24;4.25;;;3.88;;
62610;SDS011;48683;48.084;17.272;2023-05-16T00:07:50;4.03;;;3.70;;
62610;SDS011;48683;48.084;17.272;2023-05-16T00:10:16;4.30;;;3.33;;
62610;SDS011;48683;48.084;17.272;2023-05-16T00:12:41;4.00;;;3.60;;
62610;SDS011;48683;48.084;17.272;2023-05-16T00:15:09;8.40;;;3.67;;
62610;SDS011;48683;48.084;17.272;2023-05-16T00:17:38;3.78;;;3.47;;
62610;SDS011;48683;48.084;17.272;2023-05-16T00:20:04;3.80;;;3.50;;
62610;SDS011;48683;48.084;17.272;2023-05-16T00:22:36;4.05;;;3.65;;
62610;SDS011;48683;48.084;17.272;2023-05-16T00:25:25;4.32;;;3.72;;
62610;SDS011;48683;48.084;17.272;2023-05-16T00:27:51;3.65;;;3.35;;
62610;SDS011;48683;48.084;17.272;2023-05-16T00:30:16;4.50;;;3.95;;
62610;SDS011;48683;48.084;17.272;2023-05-16T00:32:42;4.60;;;3.53;;
62610;SDS011;48683;48.084;17.272;2023-05-16T00:35:07;3.85;;;3.50;;
62610;SDS011;48683;48.084;17.272;2023-05-16T00:37:35;4.18;;;3.78;;
62610;SDS011;48683;48.084;17.272;2023-05-16T00:40:01;4.75;;;4.35;;
62610;SDS011;48683;48.084;17.272;2023-05-16T00:42:26;4.38;;;3.97;;
62610;SDS011;48683;48.084;17.272;2023-05-16T00:44:52;5.25;;;4.30;;
62610;SDS011;48683;48.084;17.272;2023-05-16T00:47:17;4.68;;;4.13;;
62610;SDS011;48683;48.084;17.272;2023-05-16T00:49:42;3.67;;;3.38;;
62610;SDS011;48683;48.084;17.272;2023-05-16T00:52:08;5.68;;;4.43;;
62610;SDS011;48683;48.084;17.272;2023-05-16T00:54:33;5.55;;;4.68;;
62610;SDS011;48683;48.084;17.272;2023-05-16T00:56:59;4.63;;;4.23;;
62610;SDS011;48683;48.084;17.272;2023-05-16T00:59:25;6.18;;;3.88;;
62610;SDS011;48683;48.084;17.272;2023-05-16T01:01:51;4.32;;;3.92;;
62610;SDS011;48683;48.084;17.272;2023-05-16T01:04:17;5.18;;;4.70;;
62610;SDS011;48683;48.084;17.272;2023-05-16T01:06:43;4.80;;;4.40;;
62610;SDS011;48683;48.084;17.272;2023-05-16T01:09:28;5.90;;;5.18;;
62610;SDS011;48683;48.084;17.272;2023-05-16T01:11:55;5.57;;;4.47;;
62610;SDS011;48683;48.084;17.272;2023-05-16T01:17:16;4.60;;;4.20;;
62610;SDS011;48683;48.084;17.272;2023-05-16T01:28:00;4.50;;;4.10;;
62610;SDS011;48683;48.084;17.272;2023-05-16T01:30:30;6.68;;;4.95;;
62610;SDS011;48683;48.084;17.272;2023-05-16T01:32:57;3.80;;;3.42;;
62610;SDS011;48683;48.084;17.272;2023-05-16T01:35:23;4.75;;;4.25;;
62610;SDS011;48683;48.084;17.272;2023-05-16T01:38:11;4.20;;;3.85;;
62610;SDS011;48683;48.084;17.272;2023-05-16T01:43:29;7.03;;;5.20;;
62610;SDS011;48683;48.084;17.272;2023-05-16T01:46:00;6.60;;;5.07;;
62610;SDS011;48683;48.084;17.272;2023-05-16T01:48:31;5.80;;;4.82;;
62610;SDS011;48683;48.084;17.272;2023-05-16T01:51:03;7.38;;;5.40;;
62610;SDS011;48683;48.084;17.272;2023-05-16T01:53:31;5.85;;;4.90;;
62610;SDS011;48683;48.084;17.272;2023-05-16T01:56:00;4.93;;;4.53;;
62610;SDS011;48683;48.084;17.272;2023-05-16T01:58:27;8.77;;;4.75;;
62610;SDS011;48683;48.084;17.272;2023-05-16T02:00:59;6.32;;;5.30;;
62610;SDS011;48683;48.084;17.272;2023-05-16T02:03:28;6.60;;;5.95;;
62610;SDS011;48683;48.084;17.272;2023-05-16T02:05:54;7.72;;;5.90;;
62610;SDS011;48683;48.084;17.272;2023-05-16T02:08:40;7.35;;;6.55;;
62610;SDS011;48683;48.084;17.272;2023-05-16T02:11:05;7.60;;;6.65;;
62610;SDS011;48683;48.084;17.272;2023-05-16T02:13:30;7.60;;;6.80;;
62610;SDS011;48683;48.084;17.272;2023-05-16T02:15:56;6.68;;;6.07;;
62610;SDS011;48683;48.084;17.272;2023-05-16T02:18:21;10.32;;;7.20;;
62610;SDS011;48683;48.084;17.272;2023-05-16T02:20:47;7.95;;;7.15;;
62610;SDS011;48683;48.084;17.272;2023-05-16T02:23:13;6.80;;;6.13;;
62610;SDS011;48683;48.084;17.272;2023-05-16T02:25:38;7.20;;;6.50;;
62610;SDS011;48683;48.084;17.272;2023-05-16T02:28:04;10.35;;;7.78;;
62610;SDS011;48683;48.084;17.272;2023-05-16T02:30:29;7.22;;;6.53;;
62610;SDS011;48683;48.084;17.272;2023-05-16T02:32:54;9.35;;;8.45;;
62610;SDS011;48683;48.084;17.272;2023-05-16T02:35:20;9.35;;;8.38;;
62610;SDS011;48683;48.084;17.272;2023-05-16T02:37:45;9.10;;;8.18;;
62610;SDS011;48683;48.084;17.272;2023-05-16T02:40:11;11.10;;;9.23;;
62610;SDS011;48683;48.084;17.272;2023-05-16T02:42:36;9.38;;;8.38;;
62610;SDS011;48683;48.084;17.272;2023-05-16T02:45:02;9.52;;;8.07;;
62610;SDS011;48683;48.084;17.272;2023-05-16T02:47:27;10.90;;;9.10;;
62610;SDS011;48683;48.084;17.272;2023-05-16T02:49:53;8.88;;;7.78;;
62610;SDS011;48683;48.084;17.272;2023-05-16T02:52:18;10.32;;;8.00;;
62610;SDS011;48683;48.084;17.272;2023-05-16T02:54:43;8.95;;;8.10;;
62610;SDS011;48683;48.084;17.272;2023-05-16T02:57:09;7.90;;;7.10;;
62610;SDS011;48683;48.084;17.272;2023-05-16T02:59:34;9.13;;;8.23;;
62610;SDS011;48683;48.084;17.272;2023-05-16T03:02:00;8.80;;;7.82;;
62610;SDS011;48683;48.084;17.272;2023-05-16T03:04:26;11.27;;;7.72;;
62610;SDS011;48683;48.084;17.272;2023-05-16T03:06:51;8.57;;;6.75;;
62610;SDS011;48683;48.084;17.272;2023-05-16T03:09:17;8.85;;;6.32;;
62610;SDS011;48683;48.084;17.272;2023-05-16T03:11:43;7.27;;;6.57;;
62610;SDS011;48683;48.084;17.272;2023-05-16T03:14:09;9.48;;;6.47;;
62610;SDS011;48683;48.084;17.272;2023-05-16T03:16:34;8.13;;;6.18;;
62610;SDS011;48683;48.084;17.272;2023-05-16T03:19:02;6.45;;;5.85;;
62610;SDS011;48683;48.084;17.272;2023-05-16T03:21:27;7.53;;;6.30;;
62610;SDS011;48683;48.084;17.272;2023-05-16T03:23:53;8.13;;;6.05;;
62610;SDS011;48683;48.084;17.272;2023-05-16T03:26:19;7.95;;;6.15;;
62610;SDS011;48683;48.084;17.272;2023-05-16T03:28:45;8.52;;;5.93;;
62610;SDS011;48683;48.084;17.272;2023-05-16T03:31:10;6.60;;;6.00;;
62610;SDS011;48683;48.084;17.272;2023-05-16T03:33:36;6.45;;;5.85;;
62610;SDS011;48683;48.084;17.272;2023-05-16T03:36:04;7.68;;;6.05;;
62610;SDS011;48683;48.084;17.272;2023-05-16T03:38:30;6.32;;;5.78;;
62610;SDS011;48683;48.084;17.272;2023-05-16T03:40:56;6.90;;;5.53;;
62610;SDS011;48683;48.084;17.272;2023-05-16T03:43:21;6.45;;;5.85;;
62610;SDS011;48683;48.084;17.272;2023-05-16T03:45:47;7.03;;;6.05;;
62610;SDS011;48683;48.084;17.272;2023-05-16T03:48:12;9.07;;;6.20;;
62610;SDS011;48683;48.084;17.272;2023-05-16T03:50:37;7.47;;;5.80;;
62610;SDS011;48683;48.084;17.272;2023-05-16T03:53:03;8.38;;;5.63;;
62610;SDS011;48683;48.084;17.272;2023-05-16T03:55:29;7.18;;;5.38;;
62610;SDS011;48683;48.084;17.272;2023-05-16T03:57:55;6.30;;;5.50;;
62610;SDS011;48683;48.084;17.272;2023-05-16T04:00:20;5.95;;;5.35;;
62610;SDS011;48683;48.084;17.272;2023-05-16T04:02:46;6.40;;;4.80;;
62610;SDS011;48683;48.084;17.272;2023-05-16T04:05:11;7.13;;;5.00;;
62610;SDS011;48683;48.084;17.272;2023-05-16T04:07:37;8.77;;;4.97;;
62610;SDS011;48683;48.084;17.272;2023-05-16T04:10:03;6.25;;;5.65;;
62610;SDS011;48683;48.084;17.272;2023-05-16T04:12:29;6.55;;;5.50;;
62610;SDS011;48683;48.084;17.272;2023-05-16T04:14:55;7.07;;;5.20;;
62610;SDS011;48683;48.084;17.272;2023-05-16T04:17:20;9.35;;;5.35;;
62610;SDS011;48683;48.084;17.272;2023-05-16T04:19:45;6.22;;;5.57;;
62610;SDS011;48683;48.084;17.272;2023-05-16T04:22:11;6.00;;;4.90;;
62610;SDS011;48683;48.084;17.272;2023-05-16T04:24:36;7.47;;;5.35;;
62610;SDS011;48683;48.084;17.272;2023-05-16T04:27:01;6.13;;;4.72;;
62610;SDS011;48683;48.084;17.272;2023-05-16T04:29:28;8.55;;;5.25;;
62610;SDS011;48683;48.084;17.272;2023-05-16T04:31:54;6.20;;;4.93;;
62610;SDS011;48683;48.084;17.272;2023-05-16T04:34:20;8.48;;;4.72;;
62610;SDS011;48683;48.084;17.272;2023-05-16T04:36:47;6.70;;;5.13;;
62610;SDS011;48683;48.084;17.272;2023-05-16T04:39:12;8.27;;;5.45;;
62610;SDS011;48683;48.084;17.272;2023-05-16T04:41:37;6.88;;;5.60;;
62610;SDS011;48683;48.084;17.272;2023-05-16T04:44:03;6.03;;;4.97;;
62610;SDS011;48683;48.084;17.272;2023-05-16T04:46:28;6.05;;;5.15;;
62610;SDS011;48683;48.084;17.272;2023-05-16T04:48:54;6.00;;;4.60;;
62610;SDS011;48683;48.084;17.272;2023-05-16T04:51:20;9.20;;;5.30;;
62610;SDS011;48683;48.084;17.272;2023-05-16T04:53:46;7.75;;;5.93;;
62610;SDS011;48683;48.084;17.272;2023-05-16T04:56:11;5.00;;;4.55;;
62610;SDS011;48683;48.084;17.272;2023-05-16T04:58:36;9.48;;;5.07;;
62610;SDS011;48683;48.084;17.272;2023-05-16T05:01:02;5.65;;;4.90;;
62610;SDS011;48683;48.084;17.272;2023-05-16T05:03:28;5.80;;;5.07;;
62610;SDS011;48683;48.084;17.272;2023-05-16T05:05:53;6.25;;;4.22;;
62610;SDS011;48683;48.084;17.272;2023-05-16T05:08:18;8.68;;;5.20;;
62610;SDS011;48683;48.084;17.272;2023-05-16T05:10:45;7.15;;;4.50;;
62610;SDS011;48683;48.084;17.272;2023-05-16T05:13:10;4.30;;;3.90;;
62610;SDS011;48683;48.084;17.272;2023-05-16T05:15:35;7.28;;;4.18;;
62610;SDS011;48683;48.084;17.272;2023-05-16T05:18:01;5.38;;;4.88;;
62610;SDS011;48683;48.084;17.272;2023-05-16T05:20:26;6.85;;;4.55;;
62610;SDS011;48683;48.084;17.272;2023-05-16T05:22:51;8.63;;;4.82;;
62610;SDS011;48683;48.084;17.272;2023-05-16T05:25:17;5.63;;;4.60;;
62610;SDS011;48683;48.084;17.272;2023-05-16T05:27:42;7.40;;;4.63;;
62610;SDS011;48683;48.084;17.272;2023-05-16T05:30:08;6.85;;;4.50;;
62610;SDS011;48683;48.084;17.272;2023-05-16T05:32:33;7.95;;;4.75;;
62610;SDS011;48683;48.084;17.272;2023-05-16T05:34:58;8.05;;;4.47;;
62610;SDS011;48683;48.084;17.272;2023-05-16T05:37:25;7.30;;;4.30;;
62610;SDS011;48683;48.084;17.272;2023-05-16T05:39:51;5.43;;;4.50;;
62610;SDS011;48683;48.084;17.272;2023-05-16T05:42:16;5.93;;;5.00;;
62610;SDS011;48683;48.084;17.272;2023-05-16T05:44:41;5.38;;;4.10;;
62610;SDS011;48683;48.084;17.272;2023-05-16T05:47:07;5.82;;;4.20;;
62610;SDS011;48683;48.084;17.272;2023-05-16T05:49:32;7.65;;;3.83;;
62610;SDS011;48683;48.084;17.272;2023-05-16T05:51:58;6.28;;;4.43;;
62610;SDS011;48683;48.084;17.272;2023-05-16T05:54:24;7.38;;;4.70;;
62610;SDS011;48683;48.084;17.272;2023-05-16T05:56:49;5.72;;;4.63;;
62610;SDS011;48683;48.084;17.272;2023-05-16T05:59:15;10.60;;;4.40;;
62610;SDS011;48683;48.084;17.272;2023-05-16T06:01:40;6.32;;;4.55;;
62610;SDS011;48683;48.084;17.272;2023-05-16T06:04:07;7.05;;;5.40;;
62610;SDS011;48683;48.084;17.272;2023-05-16T06:06:33;7.30;;;4.97;;
62610;SDS011;48683;48.084;17.272;2023-05-16T06:08:58;8.43;;;4.10;;
62610;SDS011;48683;48.084;17.272;2023-05-16T06:11:24;5.68;;;5.07;;
62610;SDS011;48683;48.084;17.272;2023-05-16T06:13:49;4.88;;;4.22;;
62610;SDS011;48683;48.084;17.272;2023-05-16T06:16:15;8.57;;;5.03;;
62610;SDS011;48683;48.084;17.272;2023-05-16T06:18:41;7.28;;;5.05;;
62610;SDS011;48683;48.084;17.272;2023-05-16T06:21:06;5.22;;;4.65;;
62610;SDS011;48683;48.084;17.272;2023-05-16T06:23:32;9.57;;;4.90;;
62610;SDS011;48683;48.084;17.272;2023-05-16T06:25:58;6.72;;;4.55;;
62610;SDS011;48683;48.084;17.272;2023-05-16T06:28:23;11.80;;;5.35;;
62610;SDS011;48683;48.084;17.272;2023-05-16T06:30:49;7.85;;;5.07;;
62610;SDS011;48683;48.084;17.272;2023-05-16T06:33:16;7.13;;;5.38;;
62610;SDS011;48683;48.084;17.272;2023-05-16T06:35:42;10.05;;;5.88;;
62610;SDS011;48683;48.084;17.272;2023-05-16T06:38:07;5.57;;;4.88;;
62610;SDS011;48683;48.084;17.272;2023-05-16T06:40:33;5.00;;;4.50;;
62610;SDS011;48683;48.084;17.272;2023-05-16T06:42:58;6.07;;;5.47;;
62610;SDS011;48683;48.084;17.272;2023-05-16T06:45:23;9.10;;;5.22;;
62610;SDS011;48683;48.084;17.272;2023-05-16T06:47:49;7.40;;;4.88;;
62610;SDS011;48683;48.084;17.272;2023-05-16T06:50:14;8.23;;;4.85;;
62610;SDS011;48683;48.084;17.272;2023-05-16T06:52:39;8.18;;;5.07;;
62610;SDS011;48683;48.084;17.272;2023-05-16T06:55:06;10.53;;;5.87;;
62610;SDS011;48683;48.084;17.272;2023-05-16T06:57:31;5.65;;;4.55;;
62610;SDS011;48683;48.084;17.272;2023-05-16T06:59:57;5.60;;;4.75;;
62610;SDS011;48683;48.084;17.272;2023-05-16T07:02:22;6.43;;;5.25;;
62610;SDS011;48683;48.084;17.272;2023-05-16T07:04:47;6.05;;;5.32;;
62610;SDS011;48683;48.084;17.272;2023-05-16T07:07:13;7.95;;;5.63;;
62610;SDS011;48683;48.084;17.272;2023-05-16T07:09:39;7.38;;;5.38;;
62610;SDS011;48683;48.084;17.272;2023-05-16T07:12:04;6.38;;;5.20;;
62610;SDS011;48683;48.084;17.272;2023-05-16T07:14:30;7.53;;;5.85;;
62610;SDS011;48683;48.084;17.272;2023-05-16T07:16:58;6.28;;;5.50;;
62610;SDS011;48683;48.084;17.272;2023-05-16T07:19:23;7.72;;;5.70;;
62610;SDS011;48683;48.084;17.272;2023-05-16T07:21:49;7.68;;;6.43;;
62610;SDS011;48683;48.084;17.272;2023-05-16T07:24:15;7.15;;;5.68;;
62610;SDS011;48683;48.084;17.272;2023-05-16T07:26:40;7.10;;;5.85;;
62610;SDS011;48683;48.084;17.272;2023-05-16T07:29:05;8.00;;;5.93;;
62610;SDS011;48683;48.084;17.272;2023-05-16T07:31:51;9.40;;;6.15;;
62610;SDS011;48683;48.084;17.272;2023-05-16T07:34:16;7.18;;;5.78;;
62610;SDS011;48683;48.084;17.272;2023-05-16T07:36:42;13.07;;;6.82;;
62610;SDS011;48683;48.084;17.272;2023-05-16T07:39:07;6.95;;;6.25;;
62610;SDS011;48683;48.084;17.272;2023-05-16T07:41:32;8.90;;;6.05;;
62610;SDS011;48683;48.084;17.272;2023-05-16T07:43:58;11.15;;;6.78;;
62610;SDS011;48683;48.084;17.272;2023-05-16T07:46:23;9.05;;;5.50;;
62610;SDS011;48683;48.084;17.272;2023-05-16T07:48:49;8.38;;;6.70;;
62610;SDS011;48683;48.084;17.272;2023-05-16T07:51:14;8.30;;;6.43;;
62610;SDS011;48683;48.084;17.272;2023-05-16T07:53:40;7.05;;;6.35;;
62610;SDS011;48683;48.084;17.272;2023-05-16T07:56:06;7.50;;;6.50;;
62610;SDS011;48683;48.084;17.272;2023-05-16T07:58:32;10.60;;;6.23;;
62610;SDS011;48683;48.084;17.272;2023-05-16T08:00:57;7.85;;;6.72;;
62610;SDS011;48683;48.084;17.272;2023-05-16T08:03:23;7.82;;;7.03;;
62610;SDS011;48683;48.084;17.272;2023-05-16T08:05:48;9.00;;;6.28;;
62610;SDS011;48683;48.084;17.272;2023-05-16T08:08:13;7.65;;;5.90;;
62610;SDS011;48683;48.084;17.272;2023-05-16T08:10:39;6.88;;;6.18;;
62610;SDS011;48683;48.084;17.272;2023-05-16T08:13:04;6.75;;;6.13;;
62610;SDS011;48683;48.084;17.272;2023-05-16T08:15:30;16.92;;;7.78;;
62610;SDS011;48683;48.084;17.272;2023-05-16T08:17:56;8.60;;;6.57;;
62610;SDS011;48683;48.084;17.272;2023-05-16T08:20:22;9.52;;;6.68;;
62610;SDS011;48683;48.084;17.272;2023-05-16T08:22:48;9.32;;;7.35;;
62610;SDS011;48683;48.084;17.272;2023-05-16T08:25:13;10.57;;;7.05;;
62610;SDS011;48683;48.084;17.272;2023-05-16T08:27:38;8.60;;;6.97;;
62610;SDS011;48683;48.084;17.272;2023-05-16T08:30:04;8.70;;;7.28;;
62610;SDS011;48683;48.084;17.272;2023-05-16T08:32:30;8.57;;;6.77;;
62610;SDS011;48683;48.084;17.272;2023-05-16T08:34:55;8.77;;;6.45;;
62610;SDS011;48683;48.084;17.272;2023-05-16T08:37:21;7.57;;;6.72;;
62610;SDS011;48683;48.084;17.272;2023-05-16T08:39:46;8.93;;;6.82;;
62610;SDS011;48683;48.084;17.272;2023-05-16T08:42:11;7.35;;;6.65;;
62610;SDS011;48683;48.084;17.272;2023-05-16T08:44:37;7.72;;;7.00;;
62610;SDS011;48683;48.084;17.272;2023-05-16T08:47:16;7.38;;;6.68;;
62610;SDS011;48683;48.084;17.272;2023-05-16T08:49:43;11.00;;;7.35;;
62610;SDS011;48683;48.084;17.272;2023-05-16T08:52:12;11.48;;;7.75;;
62610;SDS011;48683;48.084;17.272;2023-05-16T08:54:38;12.57;;;8.35;;
62610;SDS011;48683;48.084;17.272;2023-05-16T08:57:04;9.60;;;7.43;;
62610;SDS011;48683;48.084;17.272;2023-05-16T09:00:10;8.25;;;7.13;;
62610;SDS011;48683;48.084;17.272;2023-05-16T09:02:37;8.77;;;7.43;;
62610;SDS011;48683;48.084;17.272;2023-05-16T09:05:04;10.63;;;8.50;;
62610;SDS011;48683;48.084;17.272;2023-05-16T09:07:32;10.25;;;7.88;;
62610;SDS011;48683;48.084;17.272;2023-05-16T09:09:57;12.55;;;8.13;;
62610;SDS011;48683;48.084;17.272;2023-05-16T09:12:23;8.40;;;7.57;;
62610;SDS011;48683;48.084;17.272;2023-05-16T09:14:48;9.27;;;8.38;;
62610;SDS011;48683;48.084;17.272;2023-05-16T09:17:14;9.23;;;7.90;;
62610;SDS011;48683;48.084;17.272;2023-05-16T09:19:40;12.93;;;8.23;;
62610;SDS011;48683;48.084;17.272;2023-05-16T09:24:42;7.82;;;6.80;;
62610;SDS011;48683;48.084;17.272;2023-05-16T09:27:09;9.40;;;7.38;;
62610;SDS011;48683;48.084;17.272;2023-05-16T09:29:34;9.25;;;7.32;;
62610;SDS011;48683;48.084;17.272;2023-05-16T09:32:10;8.93;;;7.40;;
62610;SDS011;48683;48.084;17.272;2023-05-16T09:37:03;8.63;;;7.68;;
62610;SDS011;48683;48.084;17.272;2023-05-16T09:39:29;7.80;;;7.10;;
62610;SDS011;48683;48.084;17.272;2023-05-16T09:41:54;9.82;;;6.97;;
62610;SDS011;48683;48.084;17.272;2023-05-16T09:44:20;8.35;;;7.50;;
62610;SDS011;48683;48.084;17.272;2023-05-16T09:46:45;8.40;;;7.60;;
62610;SDS011;48683;48.084;17.272;2023-05-16T09:49:11;10.77;;;7.88;;
62610;SDS011;48683;48.084;17.272;2023-05-16T09:51:36;8.43;;;7.57;;
62610;SDS011;48683;48.084;17.272;2023-05-16T09:54:06;10.02;;;7.20;;
62610;SDS011;48683;48.084;17.272;2023-05-16T09:56:32;9.25;;;7.50;;
62610;SDS011;48683;48.084;17.272;2023-05-16T09:58:57;9.68;;;6.75;;
62610;SDS011;48683;48.084;17.272;2023-05-16T10:01:23;7.60;;;6.90;;
62610;SDS011;48683;48.084;17.272;2023-05-16T10:03:49;7.97;;;7.22;;
62610;SDS011;48683;48.084;17.272;2023-05-16T10:06:14;8.15;;;7.45;;
62610;SDS011;48683;48.084;17.272;2023-05-16T10:08:41;8.40;;;5.85;;
62610;SDS011;48683;48.084;17.272;2023-05-16T10:11:07;7.90;;;7.10;;
62610;SDS011;48683;48.084;17.272;2023-05-16T10:13:53;7.57;;;6.78;;
62610;SDS011;48683;48.084;17.272;2023-05-16T10:16:18;7.97;;;7.18;;
62610;SDS011;48683;48.084;17.272;2023-05-16T10:18:47;6.93;;;6.30;;
62610;SDS011;48683;48.084;17.272;2023-05-16T10:21:14;8.43;;;7.53;;
62610;SDS011;48683;48.084;17.272;2023-05-16T10:23:42;8.73;;;7.85;;
62610;SDS011;48683;48.084;17.272;2023-05-16T10:26:11;7.65;;;6.95;;
62610;SDS011;48683;48.084;17.272;2023-05-16T10:28:40;8.30;;;6.95;;
62610;SDS011;48683;48.084;17.272;2023-05-16T10:31:06;9.68;;;8.57;;
62610;SDS011;48683;48.084;17.272;2023-05-16T10:33:32;9.07;;;7.70;;
62610;SDS011;48683;48.084;17.272;2023-05-16T10:35:58;7.55;;;6.85;;
62610;SDS011;48683;48.084;17.272;2023-05-16T10:38:24;9.88;;;6.65;;
62610;SDS011;48683;48.084;17.272;2023-05-16T10:40:52;8.10;;;7.20;;
62610;SDS011;48683;48.084;17.272;2023-05-16T10:43:27;6.93;;;6.22;;
62610;SDS011;48683;48.084;17.272;2023-05-16T10:48:31;7.68;;;6.88;;
62610;SDS011;48683;48.084;17.272;2023-05-16T10:50:59;7.20;;;6.45;;
62610;SDS011;48683;48.084;17.272;2023-05-16T10:53:34;9.45;;;7.57;;
62610;SDS011;48683;48.084;17.272;2023-05-16T11:06:21;17.75;;;7.45;;
62610;SDS011;48683;48.084;17.272;2023-05-16T11:08:56;8.80;;;7.53;;
62610;SDS011;48683;48.084;17.272;2023-05-16T11:11:54;9.88;;;8.02;;
62610;SDS011;48683;48.084;17.272;2023-05-16T11:14:23;7.85;;;7.15;;
62610;SDS011;48683;48.084;17.272;2023-05-16T11:17:26;8.35;;;7.57;;
62610;SDS011;48683;48.084;17.272;2023-05-16T11:19:53;9.07;;;7.72;;
62610;SDS011;48683;48.084;17.272;2023-05-16T11:27:34;10.75;;;8.10;;
62610;SDS011;48683;48.084;17.272;2023-05-16T11:30:10;9.38;;;8.48;;
62610;SDS011;48683;48.084;17.272;2023-05-16T11:32:37;9.73;;;8.77;;
62610;SDS011;48683;48.084;17.272;2023-05-16T11:35:06;10.48;;;8.73;;
62610;SDS011;48683;48.084;17.272;2023-05-16T11:37:33;9.38;;;8.48;;
62610;SDS011;48683;48.084;17.272;2023-05-16T11:40:00;9.18;;;7.70;;
62610;SDS011;48683;48.084;17.272;2023-05-16T11:42:33;9.55;;;8.65;;
62610;SDS011;48683;48.084;17.272;2023-05-16T11:45:41;8.55;;;7.63;;
62610;SDS011;48683;48.084;17.272;2023-05-16T11:47:51;8.15;;;7.35;;
62610;SDS011;48683;48.084;17.272;2023-05-16T11:50:17;8.82;;;7.78;;
62610;SDS011;48683;48.084;17.272;2023-05-16T11:52:53;11.27;;;8.80;;
62610;SDS011;48683;48.084;17.272;2023-05-16T11:55:22;11.20;;;8.50;;
62610;SDS011;48683;48.084;17.272;2023-05-16T11:57:50;10.52;;;8.80;;
62610;SDS011;48683;48.084;17.272;2023-05-16T12:00:22;7.03;;;6.32;;
62610;SDS011;48683;48.084;17.272;2023-05-16T12:02:50;8.02;;;7.22;;
62610;SDS011;48683;48.084;17.272;2023-05-16T12:05:16;8.53;;;7.60;;
62610;SDS011;48683;48.084;17.272;2023-05-16T12:07:44;9.48;;;8.57;;
62610;SDS011;48683;48.084;17.272;2023-05-16T12:10:11;9.85;;;8.88;;
62610;SDS011;48683;48.084;17.272;2023-05-16T12:12:38;10.60;;;7.97;;
62610;SDS011;48683;48.084;17.272;2023-05-16T12:19:58;8.45;;;7.47;;
62610;SDS011;48683;48.084;17.272;2023-05-16T12:22:24;9.33;;;8.13;;
62610;SDS011;48683;48.084;17.272;2023-05-16T12:24:49;10.63;;;8.73;;
62610;SDS011;48683;48.084;17.272;2023-05-16T12:27:21;10.30;;;8.50;;
62610;SDS011;48683;48.084;17.272;2023-05-16T12:29:47;8.88;;;8.07;;
62610;SDS011;48683;48.084;17.272;2023-05-16T12:32:16;8.95;;;7.97;;
62610;SDS011;48683;48.084;17.272;2023-05-16T12:34:47;9.30;;;8.38;;
62610;SDS011;48683;48.084;17.272;2023-05-16T12:37:17;10.00;;;9.00;;
62610;SDS011;48683;48.084;17.272;2023-05-16T12:39:43;9.18;;;8.15;;
62610;SDS011;48683;48.084;17.272;2023-05-16T12:42:11;7.28;;;6.40;;
62610;SDS011;48683;48.084;17.272;2023-05-16T12:44:37;7.10;;;6.30;;
62610;SDS011;48683;48.084;17.272;2023-05-16T12:47:08;6.78;;;6.07;;
62610;SDS011;48683;48.084;17.272;2023-05-16T12:49:36;6.65;;;5.90;;
62610;SDS011;48683;48.084;17.272;2023-05-16T12:52:21;8.73;;;5.88;;
62610;SDS011;48683;48.084;17.272;2023-05-16T12:54:47;7.40;;;6.45;;
62610;SDS011;48683;48.084;17.272;2023-05-16T12:57:12;5.60;;;5.00;;
62610;SDS011;48683;48.084;17.272;2023-05-16T12:59:38;6.18;;;5.65;;
62610;SDS011;48683;48.084;17.272;2023-05-16T13:02:03;10.45;;;6.05;;
62610;SDS011;48683;48.084;17.272;2023-05-16T13:04:29;5.05;;;4.32;;
62610;SDS011;48683;48.084;17.272;2023-05-16T13:06:55;4.63;;;4.22;;
62610;SDS011;48683;48.084;17.272;2023-05-16T13:09:21;4.70;;;4.20;;
62610;SDS011;48683;48.084;17.272;2023-05-16T13:11:47;4.93;;;4.33;;
62610;SDS011;48683;48.084;17.272;2023-05-16T13:14:12;6.00;;;4.40;;
62610;SDS011;48683;48.084;17.272;2023-05-16T13:16:37;5.28;;;3.60;;
62610;SDS011;48683;48.084;17.272;2023-05-16T13:19:03;3.65;;;3.30;;
62610;SDS011;48683;48.084;17.272;2023-05-16T13:21:29;3.95;;;3.55;;
62610;SDS011;48683;48.084;17.272;2023-05-16T13:24:14;5.68;;;4.35;;
62610;SDS011;48683;48.084;17.272;2023-05-16T13:26:40;5.63;;;4.35;;
62610;SDS011;48683;48.084;17.272;2023-05-16T13:29:06;5.85;;;4.57;;
62610;SDS011;48683;48.084;17.272;2023-05-16T13:31:33;4.53;;;4.13;;
62610;SDS011;48683;48.084;17.272;2023-05-16T13:33:58;6.63;;;4.38;;
62610;SDS011;48683;48.084;17.272;2023-05-16T13:36:24;5.40;;;4.90;;
62610;SDS011;48683;48.084;17.272;2023-05-16T13:38:49;6.68;;;4.75;;
62610;SDS011;48683;48.084;17.272;2023-05-16T13:41:15;4.95;;;4.50;;
62610;SDS011;48683;48.084;17.272;2023-05-16T13:43:40;5.68;;;4.95;;
62610;SDS011;48683;48.084;17.272;2023-05-16T13:46:05;6.68;;;4.35;;
62610;SDS011;48683;48.084;17.272;2023-05-16T13:48:31;6.00;;;5.10;;
62610;SDS011;48683;48.084;17.272;2023-05-16T13:50:56;5.47;;;4.82;;
62610;SDS011;48683;48.084;17.272;2023-05-16T13:53:22;5.72;;;5.22;;
62610;SDS011;48683;48.084;17.272;2023-05-16T13:55:47;8.07;;;5.32;;
62610;SDS011;48683;48.084;17.272;2023-05-16T13:58:12;6.03;;;5.53;;
62610;SDS011;48683;48.084;17.272;2023-05-16T14:00:38;6.72;;;6.10;;
62610;SDS011;48683;48.084;17.272;2023-05-16T14:03:03;7.18;;;6.45;;
62610;SDS011;48683;48.084;17.272;2023-05-16T14:05:28;7.88;;;7.00;;
62610;SDS011;48683;48.084;17.272;2023-05-16T14:07:54;8.93;;;8.02;;
62610;SDS011;48683;48.084;17.272;2023-05-16T14:10:19;9.07;;;8.18;;
62610;SDS011;48683;48.084;17.272;2023-05-16T14:12:45;10.00;;;8.13;;
62610;SDS011;48683;48.084;17.272;2023-05-16T14:15:10;9.75;;;8.57;;
62610;SDS011;48683;48.084;17.272;2023-05-16T14:17:36;9.77;;;8.75;;
62610;SDS011;48683;48.084;17.272;2023-05-16T14:20:01;10.95;;;9.85;;
62610;SDS011;48683;48.084;17.272;2023-05-16T14:22:28;8.85;;;7.82;;
62610;SDS011;48683;48.084;17.272;2023-05-16T14:24:53;7.45;;;6.75;;
62610;SDS011;48683;48.084;17.272;2023-05-16T14:27:18;6.68;;;5.43;;
62610;SDS011;48683;48.084;17.272;2023-05-16T14:29:44;5.82;;;5.32;;
62610;SDS011;48683;48.084;17.272;2023-05-16T14:32:10;7.68;;;5.90;;
62610;SDS011;48683;48.084;17.272;2023-05-16T14:34:36;6.07;;;5.57;;
62610;SDS011;48683;48.084;17.272;2023-05-16T14:37:02;7.32;;;5.88;;
62610;SDS011;48683;48.084;17.272;2023-05-16T14:39:27;7.95;;;6.82;;
62610;SDS011;48683;48.084;17.272;2023-05-16T14:41:53;8.60;;;7.35;;
62610;SDS011;48683;48.084;17.272;2023-05-16T14:44:18;7.80;;;7.10;;
62610;SDS011;48683;48.084;17.272;2023-05-16T14:46:45;7.22;;;6.55;;
62610;SDS011;48683;48.084;17.272;2023-05-16T14:49:31;8.10;;;6.87;;
62610;SDS011;48683;48.084;17.272;2023-05-16T14:54:31;8.85;;;7.93;;
62610;SDS011;48683;48.084;17.272;2023-05-16T14:56:57;8.43;;;7.60;;
62610;SDS011;48683;48.084;17.272;2023-05-16T14:59:23;8.70;;;7.75;;
62610;SDS011;48683;48.084;17.272;2023-05-16T15:01:49;8.60;;;7.80;;
62610;SDS011;48683;48.084;17.272;2023-05-16T15:04:15;8.90;;;7.38;;
62610;SDS011;48683;48.084;17.272;2023-05-16T15:06:40;7.55;;;6.80;;
62610;SDS011;48683;48.084;17.272;2023-05-16T15:09:05;10.35;;;7.30;;
62610;SDS011;48683;48.084;17.272;2023-05-16T15:11:50;7.75;;;7.00;;
62610;SDS011;48683;48.084;17.272;2023-05-16T15:14:16;7.90;;;7.10;;
62610;SDS011;48683;48.084;17.272;2023-05-16T15:16:41;8.07;;;7.28;;